Just Grey — CRA7069 — position and weather

sailwx.info

Track history (hours):
 
Tides and Currents Weather Stations Pressure Air Temp Water Temp Dewpoint Dewpoint Depression Visibility Wind Speed Wind Dir Waves Ship Positions

Just Grey

Last reported at 2018-May-18 16:23 UTC. Time now 2018-Jun-22 13:30 UTC.
Position N 37°06' W 008°40'.
Warning: this ship's position is 34 days out of date.

Length 9 m.

Type: Sailing vessel. MMSI: 263958773.

Date/timePositionNaut miles runAvg speedWind from/ knotsBaromVisibWave heightAir tempDewpointWater temp
2018-May-18 16:23N 37°06' W 008°40'6 1.7
2018-May-18 13:01N 37°06' W 008°33'0 5.5
2018-May-18 12:59N 37°06' W 008°33'11 5.3
2018-May-18 11:01N 37°04' W 008°20'0 5.3
2018-May-18 10:58N 37°04' W 008°20'  
2018-May-15 14:15N 37°03' W 008°17'2 5.1
2018-May-15 13:57N 37°03' W 008°19'8 5.2
2018-May-15 12:28N 37°04' W 008°29'2 3.2
2018-May-15 11:58N 37°04' W 008°31'3 0.4
2018-May-15 03:26N 37°07' W 008°32'  
Track history (hours):
 
Tides and Currents Weather Stations Pressure Air Temp Water Temp Dewpoint Dewpoint Depression Visibility Wind Speed Wind Dir Waves Ship Positions

Just Grey

Last reported at 2018-May-18 16:23 UTC. Time now 2018-Jun-22 13:30 UTC.
Position N 37°06' W 008°40'.
Warning: this ship's position is 34 days out of date.

Length 9 m.

Type: Sailing vessel. MMSI: 263958773.

Date/timePositionNaut miles runAvg speedWind from/ knotsBaromVisibWave heightAir tempDewpointWater temp
2018-May-18 16:23N 37°06' W 008°40'6 1.7
2018-May-18 13:01N 37°06' W 008°33'0 5.5
2018-May-18 12:59N 37°06' W 008°33'11 5.3
2018-May-18 11:01N 37°04' W 008°20'0 5.3
2018-May-18 10:58N 37°04' W 008°20'  
2018-May-15 14:15N 37°03' W 008°17'2 5.1
2018-May-15 13:57N 37°03' W 008°19'8 5.2
2018-May-15 12:28N 37°04' W 008°29'2 3.2
2018-May-15 11:58N 37°04' W 008°31'3 0.4
2018-May-15 03:26N 37°07' W 008°32'  

Dump ship's entire track history